Time;durP1;ratioP1;P1;durP2;ratioP2;P2;SDS_P1;SDS_P2;PMS_P1;PMS_P2;Temp;Humidity;BMP_temperature;BMP_pressure;BME280_temperature;BME280_humidity;BME280_pressure;Samples;Min_cycle;Max_cycle;Signal;HPM_P1;HPM_P2
2023/01/13 00:04:34;;;;;;;0.50;0.50;;;;;;;6.80;100.00;95823.69;10493351;28;20194;-73
2023/01/13 00:09:35;;;;;;;0.90;0.70;;;;;;;6.65;100.00;95833.06;10493290;28;20200;-73
2023/01/13 00:14:35;;;;;;;0.87;0.60;;;;;;;6.63;100.00;95830.59;10493102;28;20242;-73
2023/01/13 00:19:36;;;;;;;0.70;0.70;;;;;;;6.68;100.00;95817.94;10491478;28;20284;-74
2023/01/13 00:24:36;;;;;;;0.77;0.77;;;;;;;6.66;100.00;95806.88;10493036;28;20282;-74
2023/01/13 00:29:36;;;;;;;0.70;0.70;;;;;;;6.48;100.00;95809.53;10492630;28;20237;-73
2023/01/13 00:34:37;;;;;;;2.10;0.60;;;;;;;6.57;100.00;95792.16;10491514;28;20196;-74
2023/01/13 00:39:37;;;;;;;1.60;0.73;;;;;;;6.59;100.00;95791.03;10492204;28;20310;-73
2023/01/13 00:44:38;;;;;;;1.60;0.70;;;;;;;6.52;100.00;95784.00;10492266;28;20238;-74
2023/01/13 00:49:38;;;;;;;0.50;0.50;;;;;;;6.65;100.00;95781.81;10499647;28;20238;-74
2023/01/13 00:54:38;;;;;;;1.90;0.60;;;;;;;6.68;100.00;95780.69;10500687;28;20218;-74
2023/01/13 00:59:39;;;;;;;1.73;0.60;;;;;;;6.58;100.00;95765.16;10499864;28;20222;-74
2023/01/13 01:04:39;;;;;;;1.23;0.70;;;;;;;6.57;100.00;95769.56;10500146;28;20265;-73
2023/01/13 01:09:40;;;;;;;0.70;0.70;;;;;;;6.52;100.00;95786.59;10500035;28;20214;-74
2023/01/13 01:14:40;;;;;;;0.70;0.70;;;;;;;6.58;100.00;95772.97;10499650;28;20190;-74
2023/01/13 01:19:41;;;;;;;0.70;0.70;;;;;;;6.55;100.00;95778.50;10499534;28;20261;-74
2023/01/13 01:24:41;;;;;;;0.60;0.60;;;;;;;6.46;100.00;95776.81;10498314;28;20187;-73
2023/01/13 01:29:41;;;;;;;0.80;0.80;;;;;;;6.62;100.00;95769.09;10498676;28;20663;-74
2023/01/13 01:34:42;;;;;;;1.13;0.60;;;;;;;6.62;100.00;95768.31;10498825;28;20825;-74
2023/01/13 01:39:42;;;;;;;1.70;0.60;;;;;;;6.71;100.00;95767.38;10498165;28;20238;-74
2023/01/13 01:44:52;;;;;;;0.50;0.50;;;;;;;6.88;100.00;95763.03;10497987;28;20651;-74
2023/01/13 01:49:54;;;;;;;0.97;0.70;;;;;;;6.87;100.00;95754.41;10496845;28;20227;-74
2023/01/13 01:55:03;;;;;;;1.10;0.60;;;;;;;7.00;100.00;95742.72;10497894;28;20597;-73
2023/01/13 02:00:05;;;;;;;0.70;0.70;;;;;;;6.97;100.00;95746.47;10496438;28;20288;-74
2023/01/13 02:05:12;;;;;;;0.50;0.50;;;;;;;7.05;100.00;95749.09;10497854;28;20277;-73
2023/01/13 02:10:17;;;;;;;1.67;0.67;;;;;;;7.05;100.00;95754.31;10496736;28;20300;-73
2023/01/13 02:15:25;;;;;;;0.60;0.60;;;;;;;6.93;100.00;95743.34;10495728;28;20659;-74
2023/01/13 02:20:51;;;;;;;0.50;0.50;;;;;;;7.12;100.00;95741.44;10495438;28;20575;-74
2023/01/13 02:26:15;;;;;;;0.50;0.50;;;;;;;7.12;100.00;95736.25;10496753;28;20207;-74
2023/01/13 02:36:40;;;;;;;0.53;0.53;;;;;;;7.12;100.00;95724.06;10496359;28;20223;-73
2023/01/13 02:47:19;;;;;;;0.73;0.57;;;;;;;7.05;100.00;95711.84;10494162;28;20187;-74
2023/01/13 02:52:38;;;;;;;0.97;0.70;;;;;;;7.14;100.00;95700.47;10468535;28;20200;-74
2023/01/13 02:57:40;;;;;;;0.50;0.50;;;;;;;7.12;100.00;95691.97;10453076;28;20688;-74
2023/01/13 03:02:40;;;;;;;2.07;0.50;;;;;;;7.13;100.00;95684.00;10453636;28;20196;-74
2023/01/13 03:07:48;;;;;;;1.80;0.60;;;;;;;7.09;100.00;95672.28;10453423;28;20188;-74
2023/01/13 03:13:02;;;;;;;1.53;0.70;;;;;;;7.24;100.00;95679.47;10452933;28;20202;-74
2023/01/13 03:18:33;;;;;;;0.60;0.60;;;;;;;7.25;100.00;95666.28;10452090;28;20224;-74
2023/01/13 03:23:38;;;;;;;1.70;0.70;;;;;;;7.27;100.00;95661.72;10450948;28;20648;-74
2023/01/13 03:28:42;;;;;;;2.37;0.50;;;;;;;7.24;100.00;95662.06;10453801;28;20660;-74
2023/01/13 03:33:56;;;;;;;1.60;0.60;;;;;;;7.36;100.00;95653.91;10451351;28;20200;-74
2023/01/13 03:39:01;;;;;;;0.60;0.60;;;;;;;7.36;100.00;95656.53;10452635;28;20224;-74
2023/01/13 03:44:22;;;;;;;0.50;0.50;;;;;;;7.37;100.00;95652.94;10451294;28;20184;-74
2023/01/13 03:49:26;;;;;;;1.50;0.70;;;;;;;7.40;100.00;95650.00;10451157;28;20223;-74
2023/01/13 03:54:29;;;;;;;0.70;0.70;;;;;;;7.41;100.00;95662.88;10450651;28;20719;-74
2023/01/13 03:59:37;;;;;;;1.67;0.60;;;;;;;7.35;100.00;95647.91;10450706;28;20219;-74
2023/01/13 04:04:47;;;;;;;0.50;0.50;;;;;;;7.35;100.00;95660.09;10447185;28;20207;-74
2023/01/13 04:09:50;;;;;;;0.50;0.50;;;;;;;7.32;100.00;95661.25;10447860;28;20250;-74
2023/01/13 04:14:51;;;;;;;0.60;0.60;;;;;;;7.34;100.00;95656.69;10446389;28;20204;-74
2023/01/13 04:19:51;;;;;;;0.50;0.50;;;;;;;7.33;100.00;95660.25;10447056;28;20219;-74
2023/01/13 04:24:52;;;;;;;1.20;1.10;;;;;;;7.26;100.00;95667.09;10447074;28;20188;-75
2023/01/13 04:29:52;;;;;;;1.47;1.37;;;;;;;7.26;100.00;95664.50;10447323;28;20218;-74
2023/01/13 04:34:53;;;;;;;1.23;0.70;;;;;;;7.12;100.00;95677.19;10442982;28;20202;-74
2023/01/13 04:39:53;;;;;;;0.77;0.70;;;;;;;7.12;100.00;95671.97;10441119;28;20231;-74
2023/01/13 04:44:53;;;;;;;0.83;0.83;;;;;;;7.12;100.00;95669.38;10442698;28;20278;-74
2023/01/13 04:49:54;;;;;;;0.63;0.60;;;;;;;7.10;100.00;95671.28;10441205;28;20592;-74
2023/01/13 04:54:54;;;;;;;1.80;1.27;;;;;;;7.24;100.00;95667.28;10442010;28;20241;-74
2023/01/13 04:59:54;;;;;;;2.30;1.37;;;;;;;7.19;100.00;95653.09;10441864;28;20211;-74
2023/01/13 05:04:55;;;;;;;4.47;3.27;;;;;;;7.25;100.00;95660.25;10447305;28;20206;-74
2023/01/13 05:09:55;;;;;;;1.07;1.07;;;;;;;7.20;100.00;95654.69;10449060;28;20263;-74
2023/01/13 05:20:14;;;;;;;0.40;0.40;;;;;;;7.07;100.00;95671.63;10448429;28;20220;-74
2023/01/13 05:25:21;;;;;;;0.50;0.50;;;;;;;7.07;100.00;95682.03;10448708;28;20195;-74
2023/01/13 05:30:27;;;;;;;0.50;0.50;;;;;;;7.16;100.00;95676.84;10448261;28;20184;-74
2023/01/13 05:35:28;;;;;;;0.57;0.57;;;;;;;7.19;100.00;95685.16;10455501;28;20661;-74
2023/01/13 05:45:54;;;;;;;0.50;0.50;;;;;;;7.34;100.00;95676.72;10455921;28;20250;-74
2023/01/13 05:50:55;;;;;;;0.73;0.73;;;;;;;7.27;100.00;95674.75;10453738;28;20235;-75
2023/01/13 05:55:55;;;;;;;0.60;0.60;;;;;;;7.19;100.00;95671.31;10455752;28;20673;-74
2023/01/13 06:01:04;;;;;;;0.40;0.40;;;;;;;7.23;100.00;95678.66;10455290;28;20527;-74
2023/01/13 06:06:07;;;;;;;0.50;0.50;;;;;;;7.06;100.00;95683.03;10454414;28;20176;-74
2023/01/13 06:11:08;;;;;;;0.43;0.43;;;;;;;6.97;100.00;95682.19;10454885;28;20223;-73
2023/01/13 06:16:08;;;;;;;0.50;0.50;;;;;;;7.08;100.00;95686.28;10454425;28;20302;-74
2023/01/13 06:21:08;;;;;;;0.40;0.40;;;;;;;7.24;100.00;95689.88;10454121;28;20195;-74
2023/01/13 06:26:14;;;;;;;0.50;0.50;;;;;;;7.12;100.00;95694.56;10470446;28;20309;-74
2023/01/13 06:31:14;;;;;;;0.40;0.40;;;;;;;7.16;100.00;95693.28;10489709;28;20192;-74
2023/01/13 06:36:21;;;;;;;0.47;0.47;;;;;;;7.29;100.00;95688.44;10462720;28;20208;-73
2023/01/13 06:43:13;;;;;;;18.07;11.60;;;;;;;7.28;100.00;95689.41;10452334;28;20215;-74
2023/01/13 06:46:42;;;;;;;2.53;2.33;;;;;;;7.32;100.00;95689.91;10451349;28;20183;-74
2023/01/13 06:51:42;;;;;;;0.80;0.80;;;;;;;7.31;100.00;95686.47;10456174;28;20222;-74
2023/01/13 06:56:42;;;;;;;21.67;19.53;;;;;;;7.38;100.00;95678.84;10475351;28;20223;-74
2023/01/13 07:01:43;;;;;;;0.60;0.60;;;;;;;7.43;100.00;95671.34;10475648;28;20187;-73
2023/01/13 07:06:43;;;;;;;2.10;0.70;;;;;;;7.41;100.00;95678.50;10494314;28;20194;-73
2023/01/13 07:11:44;;;;;;;0.40;0.40;;;;;;;7.43;100.00;95686.16;10493952;28;20186;-73
2023/01/13 07:16:44;;;;;;;0.60;0.60;;;;;;;7.37;100.00;95686.81;10493031;28;20220;-73
2023/01/13 07:21:44;;;;;;;0.60;0.60;;;;;;;7.34;100.00;95692.34;10493428;28;20186;-74
2023/01/13 07:26:45;;;;;;;0.57;0.57;;;;;;;7.43;100.00;95683.56;10493481;28;20222;-74
2023/01/13 07:31:46;;;;;;;0.60;0.60;;;;;;;7.39;100.00;95677.03;10492602;28;20273;-74
2023/01/13 07:36:46;;;;;;;1.40;0.60;;;;;;;7.53;100.00;95672.97;10491120;28;20226;-74
2023/01/13 07:47:07;;;;;;;0.50;0.50;;;;;;;7.60;100.00;95653.91;10492241;28;20187;-74
2023/01/13 07:52:07;;;;;;;0.50;0.50;;;;;;;7.54;100.00;95656.38;10492104;28;20732;-74
2023/01/13 07:57:08;;;;;;;0.40;0.40;;;;;;;7.53;100.00;95665.94;10471280;28;20218;-74
2023/01/13 08:02:11;;;;;;;0.50;0.50;;;;;;;7.55;100.00;95653.59;10463258;28;20187;-73
2023/01/13 08:07:12;;;;;;;0.50;0.50;;;;;;;7.57;100.00;95651.63;10489164;28;20636;-74
2023/01/13 08:17:31;;;;;;;0.50;0.50;;;;;;;7.67;100.00;95635.81;10461207;28;20325;-73
2023/01/13 08:22:32;;;;;;;0.50;0.50;;;;;;;7.66;99.88;95649.84;10468174;28;20189;-73
2023/01/13 08:27:32;;;;;;;0.40;0.40;;;;;;;7.70;99.71;95645.09;10460948;28;20184;-74
2023/01/13 08:32:33;;;;;;;1.83;0.63;;;;;;;7.65;99.39;95642.97;10470498;28;20190;-74
2023/01/13 08:37:33;;;;;;;0.70;0.50;;;;;;;7.69;99.35;95639.09;10460201;28;20694;-74
2023/01/13 08:42:33;;;;;;;2.13;2.03;;;;;;;7.58;100.00;95653.25;10461209;28;20274;-73
2023/01/13 08:47:34;;;;;;;0.50;0.50;;;;;;;7.73;99.18;95629.13;10463654;28;20588;-73
2023/01/13 08:52:34;;;;;;;0.43;0.43;;;;;;;7.69;98.69;95613.00;10461943;28;20573;-73
2023/01/13 08:57:34;;;;;;;0.40;0.40;;;;;;;7.72;98.55;95632.69;10466614;28;20219;-73
2023/01/13 09:02:37;;;;;;;0.50;0.50;;;;;;;7.78;97.85;95613.78;10449357;28;20191;-73
2023/01/13 09:07:37;;;;;;;0.40;0.40;;;;;;;8.10;97.07;95615.53;10454907;28;20270;-75
2023/01/13 09:17:57;;;;;;;0.30;0.30;;;;;;;8.54;93.52;95616.81;10497710;28;20774;-74
2023/01/13 09:22:57;;;;;;;0.50;0.50;;;;;;;8.70;92.09;95621.16;10455639;28;20207;-75
2023/01/13 09:27:57;;;;;;;0.50;0.50;;;;;;;8.67;93.06;95639.78;10467403;28;20195;-74
2023/01/13 09:38:17;;;;;;;0.43;0.43;;;;;;;7.93;100.00;95713.03;10479632;22;20242;-74
2023/01/13 09:48:50;;;;;;;1.30;1.20;;;;;;;7.84;100.00;95730.47;10495572;28;20604;-74
2023/01/13 09:53:55;;;;;;;0.50;0.47;;;;;;;6.38;100.00;95814.81;10496208;28;20275;-74
2023/01/13 09:58:56;;;;;;;0.80;0.80;;;;;;;5.85;100.00;95837.31;10495833;28;20729;-75
2023/01/13 10:04:02;;;;;;;0.50;0.50;;;;;;;5.70;100.00;95850.00;10475574;28;20214;-75
2023/01/13 10:15:25;;;;;;;1.77;0.60;;;;;;;5.29;100.00;95865.13;10440633;28;20203;-74
2023/01/13 10:20:39;;;;;;;1.90;0.53;;;;;;;5.14;100.00;95869.16;10489532;28;20302;-75
2023/01/13 10:26:09;;;;;;;1.90;0.70;;;;;;;4.97;100.00;95857.75;10471471;28;20305;-75
2023/01/13 10:31:11;;;;;;;2.33;0.80;;;;;;;4.83;100.00;95840.88;10471023;28;20198;-76
2023/01/13 10:36:13;;;;;;;1.90;0.60;;;;;;;4.83;100.00;95838.28;10473133;28;20245;-75
2023/01/13 10:41:13;;;;;;;2.97;0.50;;;;;;;4.95;100.00;95813.78;10493668;28;20679;-75
2023/01/13 10:46:15;;;;;;;1.20;0.73;;;;;;;5.00;100.00;95810.75;10452414;28;20295;-76
2023/01/13 10:52:07;;;;;;;2.00;0.50;;;;;;;5.10;100.00;95805.50;10459546;28;20249;-76
2023/01/13 10:57:27;;;;;;;1.20;0.80;;;;;;;4.98;100.00;95784.13;10459546;28;20227;-76
2023/01/13 11:02:35;;;;;;;0.87;0.80;;;;;;;4.93;100.00;95776.78;10444975;28;20207;-76
2023/01/13 11:07:38;;;;;;;0.60;0.50;;;;;;;5.11;100.00;95766.41;10400193;28;20306;-75
2023/01/13 11:12:55;;;;;;;0.93;0.60;;;;;;;5.21;100.00;95765.53;10435359;28;20184;-75
2023/01/13 11:18:21;;;;;;;0.67;0.57;;;;;;;5.17;100.00;95783.19;10443693;28;20262;-75
2023/01/13 11:24:16;;;;;;;1.50;1.00;;;;;;;5.32;100.00;95786.94;10437406;28;20573;-76
2023/01/13 11:29:38;;;;;;;0.67;0.60;;;;;;;5.59;100.00;95785.25;10438160;28;20687;-76
2023/01/13 11:35:09;;;;;;;;;;;;;;;;;;;;;
2023/01/13 11:40:18;;;;;;;0.53;0.53;;;;;;;5.64;100.00;95796.00;10442408;28;20238;-75
2023/01/13 11:45:35;;;;;;;0.80;0.70;;;;;;;5.70;100.00;95797.22;10449587;28;20245;-75
2023/01/13 11:50:52;;;;;;;1.07;0.67;;;;;;;5.70;100.00;95792.81;10441807;28;20213;-75
2023/01/13 11:56:18;;;;;;;1.63;0.70;;;;;;;5.63;100.00;95809.16;10449561;28;20579;-75
2023/01/13 12:01:38;;;;;;;2.63;0.80;;;;;;;5.45;100.00;95752.00;10426104;28;20203;-75
2023/01/13 12:06:39;;;;;;;3.40;2.13;;;;;;;5.20;100.00;95749.16;10476749;28;20196;-75
2023/01/13 12:17:33;;;;;;;0.63;0.63;;;;;;;5.38;100.00;95756.97;10443061;28;20265;-75
2023/01/13 12:22:35;;;;;;;1.07;0.50;;;;;;;6.36;100.00;95762.13;10445479;28;20191;-74
2023/01/13 12:27:57;;;;;;;0.60;0.60;;;;;;;6.25;100.00;95752.81;10446207;28;20191;-75
2023/01/13 12:33:02;;;;;;;3.50;0.80;;;;;;;5.74;100.00;95749.16;10457290;28;20187;-74
2023/01/13 12:38:09;;;;;;;2.00;0.63;;;;;;;5.51;100.00;95754.00;10440492;28;20228;-75
2023/01/13 12:48:51;;;;;;;0.60;0.60;;;;;;;5.62;100.00;95764.19;10447593;28;20555;-75
2023/01/13 12:53:53;;;;;;;0.80;0.70;;;;;;;5.63;100.00;95744.19;10467254;28;20278;-75
2023/01/13 12:59:32;;;;;;;2.20;0.93;;;;;;;5.72;100.00;95744.09;10487814;28;20302;-74
2023/01/13 13:04:55;;;;;;;1.47;0.60;;;;;;;5.76;100.00;95759.41;10422198;28;20188;-74
2023/01/13 13:10:04;;;;;;;3.33;0.80;;;;;;;6.17;100.00;95757.13;10453187;28;20196;-74
2023/01/13 13:15:18;;;;;;;0.50;0.50;;;;;;;6.51;100.00;95745.94;10457791;28;20212;-75
2023/01/13 13:20:56;;;;;;;0.50;0.50;;;;;;;7.03;100.00;95732.00;10443728;28;20650;-75
2023/01/13 13:26:15;;;;;;;1.40;0.70;;;;;;;6.12;100.00;95761.97;10443421;28;20196;-73
2023/01/13 13:31:24;;;;;;;3.50;0.90;;;;;;;6.10;100.00;95746.53;10445511;28;20196;-74
2023/01/13 13:36:54;;;;;;;1.03;0.70;;;;;;;6.06;100.00;95761.63;10455936;28;20207;-74
2023/01/13 13:47:35;;;;;;;1.10;0.57;;;;;;;6.82;100.00;95730.63;10444162;28;20591;-74
2023/01/13 13:52:50;;;;;;;1.90;0.50;;;;;;;6.32;100.00;95721.78;10445739;28;20203;-74
2023/01/13 13:57:53;;;;;;;2.13;0.70;;;;;;;6.19;99.75;95735.22;10451016;28;20215;-75
2023/01/13 14:02:57;;;;;;;1.47;0.90;;;;;;;6.70;98.70;95734.50;10449739;28;20191;-74
2023/01/13 14:08:16;;;;;;;30.87;15.03;;;;;;;6.67;97.79;95740.00;10458858;28;20196;-75
2023/01/13 14:13:21;;;;;;;2.73;1.43;;;;;;;6.46;97.87;95748.19;10483331;28;20660;-74
2023/01/13 14:18:21;;;;;;;1.30;1.20;;;;;;;6.00;98.99;95757.03;10445692;28;20216;-74
2023/01/13 14:23:26;;;;;;;7.10;2.90;;;;;;;5.79;100.00;95762.53;10471137;28;20203;-74
2023/01/13 14:28:33;;;;;;;3.10;1.60;;;;;;;5.63;100.00;95772.78;10424069;28;20654;-73
2023/01/13 14:33:37;;;;;;;1.63;0.80;;;;;;;5.61;100.00;95785.09;10440747;28;20672;-75
2023/01/13 14:38:37;;;;;;;1.40;0.90;;;;;;;5.49;100.00;95810.47;10451243;28;20235;-74
2023/01/13 14:43:42;;;;;;;0.77;0.70;;;;;;;5.45;100.00;95815.16;10452225;28;20659;-74
2023/01/13 14:48:46;;;;;;;0.63;0.63;;;;;;;5.44;100.00;95823.09;10450314;28;20184;-74
2023/01/13 14:53:47;;;;;;;1.23;0.70;;;;;;;5.39;100.00;95828.75;10449876;28;20302;-74
2023/01/13 14:58:48;;;;;;;2.70;1.23;;;;;;;5.40;100.00;95847.72;10448030;28;20334;-75
2023/01/13 15:03:49;;;;;;;1.07;0.87;;;;;;;5.39;100.00;95843.47;10448353;28;20226;-76
2023/01/13 15:08:50;;;;;;;4.73;0.70;;;;;;;5.35;100.00;95840.38;10450874;28;20188;-76
2023/01/13 15:13:57;;;;;;;0.70;0.70;;;;;;;5.33;100.00;95845.72;10426661;28;20636;-76
2023/01/13 15:18:58;;;;;;;3.70;1.03;;;;;;;5.23;100.00;95865.72;10434947;28;20224;-73
2023/01/13 15:24:14;;;;;;;1.70;0.90;;;;;;;5.14;100.00;95858.78;10461963;28;20238;-74
2023/01/13 15:29:28;;;;;;;0.53;0.53;;;;;;;5.20;99.76;95852.22;10488883;28;20223;-73
2023/01/13 15:35:01;;;;;;;2.60;0.80;;;;;;;5.07;100.00;95881.06;10475043;28;20552;-74
2023/01/13 15:40:30;;;;;;;0.90;0.90;;;;;;;4.91;100.00;95892.88;10487145;28;20284;-73
2023/01/13 15:50:50;;;;;;;1.63;0.90;;;;;;;4.82;100.00;95891.13;10446562;28;20649;-73
2023/01/13 15:55:53;;;;;;;3.40;1.10;;;;;;;4.68;100.00;95892.41;10448151;28;20188;-74
2023/01/13 16:00:54;;;;;;;2.17;1.13;;;;;;;4.60;100.00;95892.28;10446698;28;20254;-74
2023/01/13 16:05:55;;;;;;;3.30;1.77;;;;;;;4.66;100.00;95896.94;10427277;28;20290;-74
2023/01/13 16:10:55;;;;;;;2.70;1.10;;;;;;;4.74;100.00;95904.00;10434901;28;20195;-74
2023/01/13 16:15:57;;;;;;;4.37;2.27;;;;;;;4.63;100.00;95905.78;10436520;28;20198;-74
2023/01/13 16:20:58;;;;;;;7.03;5.50;;;;;;;4.67;100.00;95918.47;10427189;28;20273;-74
2023/01/13 16:25:58;;;;;;;4.47;1.23;;;;;;;4.56;100.00;95919.47;10431616;28;20572;-74
2023/01/13 16:30:58;;;;;;;2.40;1.40;;;;;;;4.49;100.00;95924.38;10460745;28;20690;-74
2023/01/13 16:35:59;;;;;;;2.43;1.70;;;;;;;4.51;100.00;95921.66;10433924;28;20675;-74
2023/01/13 16:40:59;;;;;;;2.17;1.00;;;;;;;4.54;100.00;95927.38;10430039;28;20782;-74
2023/01/13 16:45:59;;;;;;;4.20;1.60;;;;;;;4.51;99.90;95922.47;10446434;28;20835;-74
2023/01/13 16:51:00;;;;;;;3.53;1.40;;;;;;;4.35;99.54;95924.78;10450830;28;20579;-74
2023/01/13 16:56:00;;;;;;;10.40;5.30;;;;;;;4.26;99.05;95922.06;10446731;28;20603;-73
2023/01/13 17:01:02;;;;;;;1.07;0.93;;;;;;;4.21;99.01;95932.06;10447219;28;20755;-74
2023/01/13 17:06:02;;;;;;;3.63;2.10;;;;;;;4.04;98.94;95937.88;10434085;28;20650;-74
2023/01/13 17:11:03;;;;;;;6.73;2.47;;;;;;;4.08;97.24;95954.81;10446140;28;20245;-73
2023/01/13 17:16:04;;;;;;;4.50;2.00;;;;;;;4.06;95.04;95936.81;10436716;28;20710;-73
2023/01/13 17:21:05;;;;;;;4.23;1.60;;;;;;;4.10;94.01;95933.00;10435750;28;20192;-74
2023/01/13 17:26:06;;;;;;;7.70;2.00;;;;;;;3.98;93.74;95943.63;10447247;28;20660;-74
2023/01/13 17:31:06;;;;;;;2.50;1.53;;;;;;;3.99;93.87;95950.44;10455439;28;20695;-74
2023/01/13 17:36:07;;;;;;;7.13;1.37;;;;;;;4.13;93.64;95936.28;10455007;28;20650;-73
2023/01/13 17:41:07;;;;;;;4.73;1.60;;;;;;;3.98;94.91;95946.19;10453179;28;20261;-74
2023/01/13 17:46:12;;;;;;;6.40;1.60;;;;;;;4.01;94.75;95946.78;10453375;28;20195;-74
2023/01/13 17:51:14;;;;;;;3.47;1.63;;;;;;;3.95;94.88;95957.69;10453636;28;20188;-74
2023/01/13 17:56:15;;;;;;;4.00;1.37;;;;;;;3.83;95.51;95951.78;10453628;28;20195;-74
2023/01/13 18:01:18;;;;;;;2.93;1.43;;;;;;;3.81;95.66;95971.81;10452704;28;20191;-75
2023/01/13 18:06:21;;;;;;;4.17;1.90;;;;;;;3.95;94.77;95972.38;10453237;28;20211;-73
2023/01/13 18:11:21;;;;;;;3.97;1.17;;;;;;;4.03;94.56;95959.59;10463883;28;20199;-74
2023/01/13 18:16:23;;;;;;;2.87;1.67;;;;;;;4.13;93.87;95963.00;10453701;28;20692;-74
2023/01/13 18:32:03;;;;;;;6.07;1.40;;;;;;;4.49;95.71;96022.94;10453520;28;20194;-74
2023/01/13 18:37:05;;;;;;;5.03;1.33;;;;;;;4.45;96.28;96029.34;10453082;28;20558;-74
2023/01/13 18:47:28;;;;;;;4.77;1.63;;;;;;;4.36;97.37;96028.38;10450784;28;20233;-74
2023/01/13 18:52:28;;;;;;;7.43;3.90;;;;;;;4.37;97.71;96037.00;10450948;28;20563;-74
2023/01/13 18:57:29;;;;;;;13.60;5.00;;;;;;;4.34;98.51;96043.25;10451353;28;20222;-74
2023/01/13 19:02:30;;;;;;;8.30;3.10;;;;;;;4.35;98.43;96054.44;10450734;28;20345;-74
2023/01/13 19:07:33;;;;;;;4.97;2.27;;;;;;;4.52;97.60;96061.59;10453240;28;20235;-74
2023/01/13 19:12:34;;;;;;;3.93;1.37;;;;;;;4.61;96.11;96049.59;10460149;28;20186;-74
2023/01/13 19:17:34;;;;;;;5.60;2.50;;;;;;;4.60;95.95;96060.91;10447994;28;20208;-73
2023/01/13 19:22:35;;;;;;;3.27;1.63;;;;;;;4.54;97.40;96059.66;10445659;28;20275;-73
2023/01/13 19:27:36;;;;;;;6.70;1.97;;;;;;;4.52;96.87;96066.75;10448554;28;20202;-73
2023/01/13 19:32:36;;;;;;;3.13;1.57;;;;;;;4.42;98.32;96081.50;10449963;28;20191;-74
2023/01/13 19:37:37;;;;;;;3.43;1.60;;;;;;;4.46;98.49;96096.66;10448728;28;20234;-73
2023/01/13 19:47:58;;;;;;;6.03;1.67;;;;;;;4.47;98.84;96103.47;10449935;28;20283;-74
2023/01/13 19:52:58;;;;;;;4.47;1.63;;;;;;;4.56;98.16;96111.41;10448130;28;20206;-74
2023/01/13 19:57:58;;;;;;;1.63;1.17;;;;;;;4.56;98.40;96114.00;10449777;28;20222;-73
2023/01/13 20:03:02;;;;;;;7.33;2.13;;;;;;;4.57;98.26;96115.66;10448137;28;20258;-73
2023/01/13 20:08:02;;;;;;;5.50;1.40;;;;;;;4.50;98.57;96123.13;10455982;28;20674;-74
2023/01/13 20:13:03;;;;;;;3.93;1.63;;;;;;;4.36;99.99;96136.47;10460719;28;20192;-73
2023/01/13 20:18:03;;;;;;;4.30;1.70;;;;;;;4.37;100.00;96151.09;10448069;28;20223;-74
2023/01/13 20:23:04;;;;;;;5.80;1.40;;;;;;;4.36;100.00;96139.06;10448067;28;20188;-73
2023/01/13 20:28:05;;;;;;;2.73;1.53;;;;;;;4.34;100.00;96161.72;10448155;28;20188;-73
2023/01/13 20:33:06;;;;;;;5.37;1.20;;;;;;;4.26;100.00;96183.94;10447222;28;20227;-73
2023/01/13 20:38:06;;;;;;;5.50;1.77;;;;;;;4.23;100.00;96183.38;10447943;28;20346;-74
2023/01/13 20:43:06;;;;;;;5.70;1.77;;;;;;;4.28;100.00;96189.00;10447286;28;20192;-74
2023/01/13 20:48:07;;;;;;;4.20;1.50;;;;;;;4.33;100.00;96186.00;10447291;28;20257;-74
2023/01/13 20:53:07;;;;;;;4.83;1.60;;;;;;;4.46;100.00;96184.00;10446897;28;20258;-74
2023/01/13 20:58:08;;;;;;;8.40;1.50;;;;;;;4.36;100.00;96177.97;10447506;28;20215;-74
2023/01/13 21:03:08;;;;;;;4.03;1.43;;;;;;;4.36;100.00;96173.59;10448382;28;20556;-73
2023/01/13 21:08:08;;;;;;;2.93;1.20;;;;;;;4.37;100.00;96177.03;10463625;28;20594;-73
2023/01/13 21:23:51;;;;;;;3.90;1.30;;;;;;;4.24;100.00;96200.56;10455201;28;20275;-74
2023/01/13 21:28:58;;;;;;;4.70;1.60;;;;;;;4.31;100.00;96208.66;10441641;28;20276;-73
2023/01/13 21:33:58;;;;;;;4.00;1.47;;;;;;;4.44;100.00;96198.88;10444582;28;20731;-73
2023/01/13 21:38:58;;;;;;;4.80;1.27;;;;;;;4.45;100.00;96198.72;10454045;28;20323;-73
2023/01/13 21:49:18;;;;;;;2.13;1.17;;;;;;;4.71;100.00;96223.41;10453808;28;20596;-73
2023/01/13 21:54:18;;;;;;;6.90;1.03;;;;;;;4.83;100.00;96236.13;10455124;28;20286;-73
2023/01/13 21:59:18;;;;;;;3.33;1.03;;;;;;;4.87;100.00;96238.47;10454216;28;20277;-73
2023/01/13 22:04:21;;;;;;;4.37;2.07;;;;;;;4.90;100.00;96228.66;10454280;28;20188;-73
2023/01/13 22:09:21;;;;;;;7.20;1.57;;;;;;;4.81;100.00;96251.03;10465030;28;20264;-73
2023/01/13 22:14:23;;;;;;;2.17;1.20;;;;;;;4.81;100.00;96261.41;10461968;28;20241;-74
2023/01/13 22:19:23;;;;;;;7.80;1.70;;;;;;;4.84;100.00;96252.53;10453935;28;20609;-73
2023/01/13 22:24:24;;;;;;;4.80;1.30;;;;;;;4.87;100.00;96252.28;10453784;28;20237;-73
2023/01/13 22:29:24;;;;;;;7.97;1.30;;;;;;;4.85;100.00;96253.34;10452782;28;20561;-73
2023/01/13 22:34:25;;;;;;;8.93;1.30;;;;;;;4.82;100.00;96262.22;10451216;28;20192;-73
2023/01/13 22:39:25;;;;;;;3.37;1.53;;;;;;;4.89;100.00;96275.50;10452182;28;20318;-73
2023/01/13 22:44:25;;;;;;;3.17;1.57;;;;;;;4.52;100.00;96315.78;10452785;28;20696;-73
2023/01/13 22:49:26;;;;;;;3.97;1.10;;;;;;;4.38;100.00;96306.56;10452241;28;20188;-74
2023/01/13 22:54:26;;;;;;;4.17;1.50;;;;;;;4.36;100.00;96312.81;10452785;28;20192;-74
2023/01/13 22:59:26;;;;;;;4.83;1.27;;;;;;;4.39;100.00;96304.78;10451572;28;20591;-74
2023/01/13 23:04:27;;;;;;;9.80;1.57;;;;;;;4.37;100.00;96323.06;10445680;28;20552;-74
2023/01/13 23:09:28;;;;;;;2.97;1.03;;;;;;;4.45;100.00;96331.00;10459913;28;20272;-73
2023/01/13 23:14:29;;;;;;;3.60;1.10;;;;;;;4.34;100.00;96331.09;10461347;28;20695;-74
2023/01/13 23:19:29;;;;;;;5.53;2.03;;;;;;;4.24;100.00;96317.22;10452484;28;20230;-74
2023/01/13 23:24:29;;;;;;;4.90;1.43;;;;;;;4.19;100.00;96329.75;10438830;28;20250;-73
2023/01/13 23:29:30;;;;;;;6.57;1.80;;;;;;;4.31;100.00;96343.50;10420927;28;20209;-74
2023/01/13 23:34:30;;;;;;;4.03;1.50;;;;;;;4.43;100.00;96311.34;10439317;28;20564;-74
2023/01/13 23:39:30;;;;;;;4.33;1.60;;;;;;;4.44;100.00;96320.75;10445718;28;20763;-74
2023/01/13 23:44:31;;;;;;;2.17;1.10;;;;;;;4.52;100.00;96314.94;10449715;28;20718;-73
2023/01/13 23:49:31;;;;;;;4.87;1.60;;;;;;;4.52;100.00;96320.97;10450222;28;20652;-74
2023/01/13 23:54:31;;;;;;;4.47;1.80;;;;;;;4.55;100.00;96335.44;10450841;28;20275;-73
2023/01/13 23:59:32;;;;;;;5.07;1.30;;;;;;;4.47;100.00;96334.31;10447719;28;20218;-73
